createdAt,value
2018-01-10T00:00:52.161Z,62.20
2018-01-10T00:12:36.685Z,62.70
2018-01-10T00:18:06.914Z,62.90
2018-01-10T00:23:35.128Z,63.20
2018-01-10T00:29:08.305Z,63.50
2018-01-10T00:34:36.544Z,63.90
2018-01-10T00:40:04.774Z,64.10
2018-01-10T00:45:34.984Z,64.30
2018-01-10T00:51:03.212Z,64.50
2018-01-10T00:56:31.423Z,64.60
2018-01-10T01:01:59.645Z,64.80
2018-01-10T01:07:27.845Z,65.00
2018-01-10T01:12:56.048Z,65.20
2018-01-10T01:18:24.238Z,65.30
2018-01-10T01:23:53.196Z,65.90
2018-01-10T01:29:21.421Z,65.80
2018-01-10T01:34:49.633Z,66.00
2018-01-10T01:40:18.629Z,66.20
2018-01-10T01:45:46.810Z,66.20
2018-01-10T01:51:15.007Z,66.20
2018-01-10T01:56:43.992Z,66.70
2018-01-10T02:02:12.212Z,66.70
2018-01-10T02:07:52.533Z,67.50
2018-01-10T02:13:20.861Z,66.90
2018-01-10T02:18:51.986Z,67.10
2018-01-10T02:24:51.327Z,67.20
2018-01-10T02:30:20.309Z,67.30
2018-01-10T02:35:49.455Z,67.30
2018-01-10T02:41:50.939Z,67.50
2018-01-10T02:47:19.186Z,67.60
2018-01-10T02:52:47.393Z,67.80
2018-01-10T02:58:15.594Z,67.90
2018-01-10T03:03:51.822Z,68.00
2018-01-10T03:09:20.031Z,68.10
2018-01-10T03:14:48.233Z,68.10
2018-01-10T03:20:16.442Z,68.20
2018-01-10T03:25:44.648Z,68.40
2018-01-10T03:31:12.857Z,69.00
2018-01-10T03:36:41.554Z,68.70
2018-01-10T03:42:09.784Z,68.90
2018-01-10T03:47:38.707Z,68.90
2018-01-10T03:53:07.131Z,69.20
2018-01-10T04:04:12.989Z,69.10
2018-01-10T04:09:41.181Z,69.50
2018-01-10T04:15:09.374Z,69.40
2018-01-10T04:20:37.804Z,69.60
2018-01-10T04:26:06.233Z,69.60
2018-01-10T04:31:34.735Z,69.80
2018-01-10T04:37:03.236Z,69.70
2018-01-10T04:42:32.216Z,69.80
2018-01-10T04:48:00.406Z,69.70
2018-01-10T04:53:28.586Z,69.70
2018-01-10T04:58:57.474Z,69.70
2018-01-10T05:04:25.715Z,69.80
2018-01-10T05:09:53.899Z,70.50
2018-01-10T05:15:22.153Z,70.00
2018-01-10T05:32:46.805Z,70.50
2018-01-10T05:38:15.248Z,70.50
2018-01-10T05:43:51.170Z,70.70
2018-01-10T05:49:19.357Z,70.80
2018-01-10T05:54:49.671Z,70.90
2018-01-10T06:00:17.886Z,71.00
2018-01-10T06:05:46.120Z,71.20
2018-01-10T06:11:14.308Z,71.30
2018-01-10T06:16:43.691Z,71.50
2018-01-10T06:22:21.143Z,71.50
2018-01-10T06:27:54.998Z,72.20
2018-01-10T06:33:28.782Z,71.60
2018-01-10T06:38:59.934Z,71.70
2018-01-10T06:44:28.913Z,71.90
2018-01-10T06:49:59.274Z,71.90
2018-01-10T07:01:08.713Z,72.30
2018-01-10T07:06:37.712Z,72.50
2018-01-10T07:12:10.373Z,72.50
2018-01-10T07:17:38.884Z,72.60
2018-01-10T07:23:20.408Z,72.60
2018-01-10T07:28:48.588Z,72.60
2018-01-10T07:34:16.784Z,72.60
2018-01-10T07:39:45.738Z,72.60
2018-01-10T07:45:13.957Z,72.50
2018-01-10T07:50:42.146Z,72.50
2018-01-10T07:56:11.283Z,72.50
2018-01-10T08:01:44.686Z,73.00
2018-01-10T08:07:12.887Z,72.50
2018-01-10T08:12:41.073Z,72.50
2018-01-10T08:18:10.026Z,72.50
2018-01-10T08:23:38.274Z,72.50
2018-01-10T08:29:06.604Z,73.30
2018-01-10T08:34:35.381Z,72.60
2018-01-10T08:40:03.788Z,72.60
2018-01-10T08:45:37.380Z,72.90
2018-01-10T08:51:05.704Z,72.90
2018-01-10T08:56:34.673Z,73.00
2018-01-10T09:02:03.628Z,72.90
2018-01-10T09:07:31.849Z,73.00
2018-01-10T09:13:00.283Z,73.00
2018-01-10T09:18:28.478Z,73.10
2018-01-10T09:23:56.714Z,72.90
2018-01-10T09:29:24.959Z,73.20
2018-01-10T09:34:53.412Z,73.00
2018-01-10T09:40:24.931Z,73.30
2018-01-10T09:45:53.178Z,73.20
2018-01-10T09:51:21.395Z,73.40
2018-01-10T09:56:49.621Z,73.50
2018-01-10T10:02:17.836Z,73.60
2018-01-10T10:07:46.064Z,73.70
2018-01-10T10:13:14.343Z,73.90
2018-01-10T10:18:42.844Z,73.90
2018-01-10T10:24:11.857Z,73.60
2018-01-10T10:29:40.054Z,73.60
2018-01-10T10:35:08.268Z,73.50
2018-01-10T10:40:36.497Z,73.30
2018-01-10T10:46:04.963Z,73.20
2018-01-10T10:51:38.312Z,73.10
2018-01-10T10:57:07.389Z,72.90
2018-01-10T11:02:36.380Z,72.50
2018-01-10T11:08:04.571Z,72.40
2018-01-10T11:13:32.803Z,72.30
2018-01-10T11:19:00.994Z,71.90
2018-01-10T11:24:29.192Z,71.50
2018-01-10T11:42:20.616Z,70.40
2018-01-10T11:47:52.399Z,69.80
2018-01-10T11:53:20.584Z,69.30
2018-01-10T11:58:48.804Z,69.30
2018-01-10T12:04:17.053Z,68.30
2018-01-10T12:09:46.987Z,67.80
2018-01-10T12:15:15.181Z,67.80
2018-01-10T12:20:51.053Z,67.70
2018-01-10T12:26:23.202Z,67.30
2018-01-10T12:31:59.061Z,67.10
2018-01-10T12:37:27.547Z,67.00
2018-01-10T12:42:55.758Z,67.10
2018-01-10T12:53:57.385Z,67.10
2018-01-10T12:59:50.729Z,66.80
2018-01-10T13:05:18.936Z,66.70
2018-01-10T13:10:47.631Z,66.80
2018-01-10T13:16:22.454Z,66.50
2018-01-10T13:21:54.620Z,66.50
2018-01-10T13:27:22.877Z,66.40
2018-01-10T13:32:51.294Z,65.90
2018-01-10T13:38:20.386Z,64.20
2018-01-10T13:43:48.643Z,64.10
2018-01-10T13:49:16.989Z,63.30
2018-01-10T13:54:45.431Z,61.40
2018-01-10T14:00:13.832Z,59.80
2018-01-10T14:05:48.505Z,57.60
2018-01-10T14:11:16.879Z,57.50
2018-01-10T14:16:55.412Z,56.90
2018-01-10T14:22:23.700Z,56.10
2018-01-10T14:27:52.719Z,56.40
2018-01-10T14:33:20.935Z,56.20
2018-01-10T14:38:49.161Z,56.90
2018-01-10T14:44:17.408Z,57.20
2018-01-10T14:49:47.347Z,59.50
2018-01-10T14:55:20.966Z,59.50
2018-01-10T15:00:49.242Z,60.60
2018-01-10T15:06:18.237Z,62.10
2018-01-10T15:11:46.495Z,61.90
2018-01-10T15:17:14.675Z,64.10
2018-01-10T15:22:43.002Z,64.80
2018-01-10T15:28:11.285Z,65.50
2018-01-10T15:33:41.298Z,66.00
2018-01-10T15:39:09.520Z,66.60
2018-01-10T15:44:37.772Z,67.20
2018-01-10T15:50:06.793Z,68.30
2018-01-10T15:55:35.029Z,68.20
2018-01-10T16:01:03.257Z,68.70
2018-01-10T16:06:34.150Z,69.50
2018-01-10T16:12:02.343Z,69.50
2018-01-10T16:17:30.552Z,69.80
2018-01-10T16:22:58.776Z,70.20
2018-01-10T16:28:33.790Z,70.60
2018-01-10T16:34:16.530Z,71.20
2018-01-10T16:39:44.742Z,71.20
2018-01-10T16:45:13.757Z,71.60
2018-01-10T16:50:41.980Z,71.60
2018-01-10T16:56:11.138Z,71.90
2018-01-10T17:01:39.361Z,72.10
2018-01-10T17:07:07.597Z,72.30
2018-01-10T17:12:35.796Z,72.40
2018-01-10T17:18:05.104Z,72.50
2018-01-10T17:23:34.127Z,72.50
2018-01-10T17:29:11.476Z,72.80
2018-01-10T17:34:39.690Z,72.80
2018-01-10T17:40:08.697Z,73.40
2018-01-10T17:45:36.910Z,73.30
2018-01-10T17:51:13.925Z,73.50
2018-01-10T17:56:44.092Z,73.80
2018-01-10T18:02:12.797Z,73.60
2018-01-10T18:07:43.119Z,73.60
2018-01-10T18:13:11.471Z,73.80
2018-01-10T18:18:42.445Z,74.70
2018-01-10T18:24:12.504Z,75.10
2018-01-10T18:29:42.562Z,75.10
2018-01-10T18:35:10.790Z,75.10
2018-01-10T18:40:46.531Z,75.10
2018-01-10T18:46:16.028Z,75.30
2018-01-10T18:51:45.399Z,75.40
2018-01-10T19:02:48.954Z,75.80
2018-01-10T19:08:17.259Z,75.80
2018-01-10T19:13:45.466Z,76.00
2018-01-10T19:19:13.756Z,76.00
2018-01-10T19:24:42.116Z,76.00
2018-01-10T19:30:15.932Z,76.00
2018-01-10T19:35:44.126Z,76.10
2018-01-10T19:41:12.345Z,76.10
2018-01-10T19:46:40.645Z,76.20
2018-01-10T19:52:09.820Z,76.30
2018-01-10T19:57:38.131Z,76.30
2018-01-10T20:03:07.416Z,76.50
2018-01-10T20:08:35.853Z,76.60
2018-01-10T20:14:04.072Z,76.60
2018-01-10T20:19:32.426Z,76.70
2018-01-10T20:30:53.787Z,76.90
2018-01-10T20:36:22.030Z,77.00
2018-01-10T20:41:50.227Z,76.80
2018-01-10T20:47:19.640Z,77.10
2018-01-10T20:52:51.058Z,77.10
2018-01-10T20:58:23.111Z,77.00
2018-01-10T21:03:51.350Z,77.00
2018-01-10T21:09:19.575Z,76.90
2018-01-10T21:14:53.501Z,77.10
2018-01-10T21:20:21.770Z,77.10
2018-01-10T21:25:52.312Z,77.00
2018-01-10T21:31:21.470Z,77.10
2018-01-10T21:36:55.323Z,76.90
2018-01-10T21:42:23.530Z,76.90
2018-01-10T21:47:52.806Z,76.90
2018-01-10T21:53:22.313Z,76.90
2018-01-10T21:58:50.525Z,76.90
2018-01-10T22:04:19.647Z,76.90
2018-01-10T22:09:47.859Z,76.90
2018-01-10T22:15:16.066Z,77.00
2018-01-10T22:20:44.288Z,77.00
2018-01-10T22:26:13.461Z,77.10
2018-01-10T22:31:46.631Z,77.20
2018-01-10T22:37:14.830Z,77.10
2018-01-10T22:42:50.514Z,79.70
2018-01-10T22:48:18.962Z,78.20
2018-01-10T22:53:47.161Z,78.00
2018-01-10T22:59:16.307Z,77.80
2018-01-10T23:04:44.651Z,78.00
2018-01-10T23:10:21.586Z,78.00
2018-01-10T23:15:49.796Z,78.00
2018-01-10T23:21:19.982Z,77.90
2018-01-10T23:26:48.191Z,78.00
2018-01-10T23:32:19.462Z,78.00
2018-01-10T23:37:47.820Z,78.00
2018-01-10T23:43:16.287Z,78.00
2018-01-10T23:48:44.530Z,78.00
2018-01-10T23:54:12.736Z,77.80
2018-01-10T23:59:40.960Z,77.90
